Time;durP1;ratioP1;P1;durP2;ratioP2;P2;SDS_P1;SDS_P2;PMS_P1;PMS_P2;Temp;Humidity;BMP_temperature;BMP_pressure;BME280_temperature;BME280_humidity;BME280_pressure;Samples;Min_cycle;Max_cycle;Signal;HPM_P1;HPM_P2
2021/07/09 00:01:49;;;;;;;;;;;;;;;33.55;33.05;100117.53;5370696;26;34321;-90
2021/07/09 00:04:17;;;;;;;;;;;;;;;33.95;32.31;100118.00;5367353;26;34906;-90
2021/07/09 00:06:44;;;;;;;;;;;;;;;33.67;32.79;100115.19;5367026;26;34657;-90
2021/07/09 00:09:12;;;;;;;;;;;;;;;33.81;32.54;100112.66;5329816;26;33582;-90
2021/07/09 00:11:41;;;;;;;;;;;;;;;34.41;31.53;100105.16;5329898;26;34532;-90
2021/07/09 00:14:09;;;;;;;;;;;;;;;33.78;32.67;100109.31;5329490;26;34060;-89
2021/07/09 00:16:37;;;;;;;;;;;;;;;34.25;31.83;100107.09;5348615;26;34003;-90
2021/07/09 00:19:05;;;;;;;;;;;;;;;34.23;31.85;100103.72;5329875;26;33724;-90
2021/07/09 00:21:33;;;;;;;;;;;;;;;34.38;31.60;100110.97;5367642;26;34634;-89
2021/07/09 00:24:02;;;;;;;;;;;;;;;33.79;32.70;100108.28;5329565;26;36047;-91
2021/07/09 00:26:29;;;;;;;;;;;;;;;34.18;31.91;100100.78;5348737;26;34371;-90
2021/07/09 00:28:59;;;;;;;;;;;;;;;34.62;31.15;100099.72;5348403;26;34915;-91
2021/07/09 00:31:30;;;;;;;;;;;;;;;34.28;31.83;100100.47;5329876;26;34300;-90
2021/07/09 00:34:03;;;;;;;;;;;;;;;34.70;30.99;100097.91;5349439;26;34439;-89
2021/07/09 00:36:30;;;;;;;;;;;;;;;34.33;31.73;100089.94;5329640;26;34783;-89
2021/07/09 00:39:00;;;;;;;;;;;;;;;34.09;32.18;100085.72;5329797;26;33794;-90
2021/07/09 00:41:33;;;;;;;;;;;;;;;33.63;33.10;100087.69;5348796;26;33746;-91
2021/07/09 00:44:01;;;;;;;;;;;;;;;33.86;32.69;100088.59;5329880;26;33529;-91
2021/07/09 00:46:38;;;;;;;;;;;;;;;33.02;34.29;100087.94;5330207;26;35413;-91
2021/07/09 00:49:06;;;;;;;;;;;;;;;32.83;34.68;100086.62;5347315;26;34508;-90
2021/07/09 00:51:34;;;;;;;;;;;;;;;32.61;35.18;100082.94;5329149;26;34913;-90
2021/07/09 00:54:01;;;;;;;;;;;;;;;31.77;36.83;100089.94;5348225;26;35927;-90
2021/07/09 00:56:29;;;;;;;;;;;;;;;32.01;36.38;100085.44;5329830;26;34305;-90
2021/07/09 00:58:56;;;;;;;;;;;;;;;32.03;36.36;100090.63;5347937;26;34007;-90
2021/07/09 01:01:23;;;;;;;;;;;;;;;32.66;35.11;100085.09;5348523;26;34200;-89
2021/07/09 01:03:51;;;;;;;;;;;;;;;31.66;37.27;100087.69;5369983;26;33835;-90
2021/07/09 01:06:19;;;;;;;;;;;;;;;32.21;36.17;100072.34;5354596;26;34580;-90
2021/07/09 01:08:46;;;;;;;;;;;;;;;32.44;35.77;100082.25;5336734;26;34102;-89
2021/07/09 01:11:14;;;;;;;;;;;;;;;32.26;36.18;100077.19;5354990;26;33099;-90
2021/07/09 01:13:42;;;;;;;;;;;;;;;31.55;37.65;100079.94;5367362;26;34296;-90
2021/07/09 01:16:11;;;;;;;;;;;;;;;31.68;37.39;100074.03;5329665;26;34518;-90
2021/07/09 01:18:39;;;;;;;;;;;;;;;32.04;36.62;100074.28;5312019;26;33832;-89
2021/07/09 01:21:09;;;;;;;;;;;;;;;31.55;37.64;100075.41;5348749;26;34537;-89
2021/07/09 01:23:37;;;;;;;;;;;;;;;31.52;37.71;100067.69;5329618;26;35109;-90
2021/07/09 01:26:05;;;;;;;;;;;;;;;31.94;36.86;100077.22;5366792;26;34854;-90
2021/07/09 01:28:32;;;;;;;;;;;;;;;31.83;37.08;100066.88;5329486;26;34047;-90
2021/07/09 01:31:00;;;;;;;;;;;;;;;32.85;35.04;100071.09;5348300;26;34391;-89
2021/07/09 01:33:28;;;;;;;;;;;;;;;32.63;35.43;100079.03;5348183;26;35480;-89
2021/07/09 01:35:55;;;;;;;;;;;;;;;32.93;34.77;100065.59;5348876;26;34283;-91
2021/07/09 01:38:22;;;;;;;;;;;;;;;32.80;35.04;100079.75;5329150;26;34620;-90
2021/07/09 01:40:50;;;;;;;;;;;;;;;32.78;35.03;100072.88;5329859;26;34635;-90
2021/07/09 01:43:17;;;;;;;;;;;;;;;32.93;34.72;100080.97;5329007;26;35079;-91
2021/07/09 01:45:44;;;;;;;;;;;;;;;33.78;33.11;100081.44;5366964;26;33871;-88
2021/07/09 01:48:12;;;;;;;;;;;;;;;33.61;33.35;100073.56;5348209;26;35116;-89
2021/07/09 01:50:39;;;;;;;;;;;;;;;33.08;34.39;100067.47;5328790;26;35869;-90
2021/07/09 01:53:07;;;;;;;;;;;;;;;33.54;33.50;100071.81;5347789;26;35641;-89
2021/07/09 01:55:34;;;;;;;;;;;;;;;32.97;34.58;100072.31;5348253;26;35508;-90
2021/07/09 01:58:02;;;;;;;;;;;;;;;33.39;33.74;100075.38;5366669;26;34108;-90
2021/07/09 02:00:30;;;;;;;;;;;;;;;33.21;34.09;100078.44;5348559;26;33881;-90
2021/07/09 02:02:59;;;;;;;;;;;;;;;33.21;34.00;100086.53;5347963;26;35678;-91
2021/07/09 02:05:26;;;;;;;;;;;;;;;32.61;35.15;100078.38;5328721;26;34343;-90
2021/07/09 02:07:55;;;;;;;;;;;;;;;32.99;34.56;100071.28;5329251;26;34604;-89
2021/07/09 02:10:26;;;;;;;;;;;;;;;32.76;35.08;100066.78;5329384;26;35523;-89
2021/07/09 02:12:54;;;;;;;;;;;;;;;32.12;36.38;100070.69;5348183;26;35035;-90
2021/07/09 02:15:26;;;;;;;;;;;;;;;33.28;34.02;100065.91;5329710;26;35561;-90
2021/07/09 02:17:54;;;;;;;;;;;;;;;32.58;35.31;100067.13;5348170;26;34257;-90
2021/07/09 02:20:23;;;;;;;;;;;;;;;32.84;34.79;100068.56;5329547;26;35733;-90
2021/07/09 02:22:53;;;;;;;;;;;;;;;32.87;34.73;100060.97;5348931;26;33949;-90
2021/07/09 02:25:20;;;;;;;;;;;;;;;33.33;33.87;100059.91;5329021;26;34545;-89
2021/07/09 02:27:50;;;;;;;;;;;;;;;33.35;33.78;100063.28;5348403;26;34036;-90
2021/07/09 02:30:19;;;;;;;;;;;;;;;33.12;34.11;100063.34;5366882;26;33951;-89
2021/07/09 02:32:46;;;;;;;;;;;;;;;33.20;33.86;100060.56;5347259;26;34620;-89
2021/07/09 02:35:15;;;;;;;;;;;;;;;33.44;33.38;100064.84;5328950;26;34381;-90
2021/07/09 02:37:42;;;;;;;;;;;;;;;32.80;34.54;100066.25;5329948;26;33639;-90
2021/07/09 02:40:12;;;;;;;;;;;;;;;33.04;34.14;100067.00;5329892;26;34811;-89
2021/07/09 02:42:40;;;;;;;;;;;;;;;32.79;34.68;100063.75;5329761;26;35772;-90
2021/07/09 02:45:09;;;;;;;;;;;;;;;33.11;34.00;100061.69;5349387;26;34218;-90
2021/07/09 02:47:38;;;;;;;;;;;;;;;32.47;35.21;100068.41;5329295;26;33807;-90
2021/07/09 02:50:07;;;;;;;;;;;;;;;32.90;34.41;100065.97;5330289;26;35142;-90
2021/07/09 02:52:34;;;;;;;;;;;;;;;32.59;34.98;100066.94;5367877;26;34469;-90
2021/07/09 02:55:06;;;;;;;;;;;;;;;33.36;33.53;100064.09;5330281;26;35770;-90
2021/07/09 02:57:33;;;;;;;;;;;;;;;32.58;34.94;100062.56;5367577;26;33842;-90
2021/07/09 03:00:01;;;;;;;;;;;;;;;32.83;34.33;100061.50;5367747;26;34258;-90
2021/07/09 03:02:28;;;;;;;;;;;;;;;33.05;33.81;100052.47;5348104;26;35150;-90
2021/07/09 03:04:56;;;;;;;;;;;;;;;32.38;35.29;100051.47;5329656;26;35234;-90
2021/07/09 03:07:23;;;;;;;;;;;;;;;32.57;34.98;100055.50;5348707;26;33720;-90
2021/07/09 03:09:50;;;;;;;;;;;;;;;32.22;35.65;100057.84;5348317;26;34741;-89
2021/07/09 03:12:18;;;;;;;;;;;;;;;31.95;36.11;100060.03;5329867;26;34649;-90
2021/07/09 03:14:45;;;;;;;;;;;;;;;32.43;35.30;100053.59;5348489;26;34983;-91
2021/07/09 03:17:12;;;;;;;;;;;;;;;32.95;34.30;100057.34;5348506;26;35142;-90
2021/07/09 03:19:40;;;;;;;;;;;;;;;32.91;34.48;100061.44;5348694;26;34910;-90
2021/07/09 03:22:07;;;;;;;;;;;;;;;32.95;34.27;100055.47;5349057;26;33268;-90
2021/07/09 03:24:35;;;;;;;;;;;;;;;32.63;34.94;100065.56;5367726;26;33827;-90
2021/07/09 03:27:02;;;;;;;;;;;;;;;33.08;34.00;100067.47;5349318;26;33819;-90
2021/07/09 03:29:30;;;;;;;;;;;;;;;33.12;34.02;100068.75;5349350;26;34640;-90
2021/07/09 03:31:57;;;;;;;;;;;;;;;33.41;33.47;100069.78;5349208;26;33673;-89
2021/07/09 03:34:25;;;;;;;;;;;;;;;33.28;33.41;100063.19;5347833;26;33571;-90
2021/07/09 03:36:52;;;;;;;;;;;;;;;33.38;33.29;100064.78;5348941;26;34223;-90
2021/07/09 03:39:19;;;;;;;;;;;;;;;33.10;33.89;100057.31;5329680;26;35792;-89
2021/07/09 03:41:47;;;;;;;;;;;;;;;33.21;33.61;100051.44;5330577;26;35389;-91
2021/07/09 03:44:15;;;;;;;;;;;;;;;32.60;34.81;100052.44;5328953;26;35662;-89
2021/07/09 03:46:42;;;;;;;;;;;;;;;32.86;34.45;100051.19;5329688;26;34714;-91
2021/07/09 03:49:09;;;;;;;;;;;;;;;32.98;34.36;100056.94;5329732;26;35404;-90
2021/07/09 03:51:38;;;;;;;;;;;;;;;32.75;34.80;100065.16;5349091;26;35156;-89
2021/07/09 03:54:06;;;;;;;;;;;;;;;32.84;34.71;100072.13;5329539;26;34484;-90
2021/07/09 03:56:33;;;;;;;;;;;;;;;33.02;34.39;100060.94;5348988;26;33746;-90
2021/07/09 03:59:01;;;;;;;;;;;;;;;32.51;35.42;100068.88;5329824;26;34539;-89
2021/07/09 04:01:28;;;;;;;;;;;;;;;33.08;34.43;100060.22;5348991;26;35100;-90
2021/07/09 04:03:56;;;;;;;;;;;;;;;32.53;35.49;100070.38;5329370;26;34876;-90
2021/07/09 04:06:24;;;;;;;;;;;;;;;32.23;36.23;100067.63;5367592;26;33105;-90
2021/07/09 04:08:51;;;;;;;;;;;;;;;32.00;36.89;100070.28;5329920;26;33286;-90
2021/07/09 04:11:18;;;;;;;;;;;;;;;32.62;35.61;100071.97;5329804;26;33378;-90
2021/07/09 04:13:46;;;;;;;;;;;;;;;32.98;35.02;100083.94;5330141;26;32715;-88
2021/07/09 04:16:13;;;;;;;;;;;;;;;32.93;35.13;100079.09;5367265;26;33481;-89
2021/07/09 04:18:41;;;;;;;;;;;;;;;32.94;35.21;100074.53;5347811;26;35060;-90
2021/07/09 04:21:08;;;;;;;;;;;;;;;33.47;34.28;100074.44;5347428;26;36000;-89
2021/07/09 04:23:36;;;;;;;;;;;;;;;33.29;34.62;100070.28;5367479;26;34829;-89
2021/07/09 04:26:03;;;;;;;;;;;;;;;33.70;33.91;100074.28;5348879;26;33149;-90
2021/07/09 04:28:31;;;;;;;;;;;;;;;33.35;34.52;100074.09;5329928;26;34049;-90
2021/07/09 04:30:58;;;;;;;;;;;;;;;33.71;34.57;100072.44;5349735;26;34317;-89
2021/07/09 04:33:25;;;;;;;;;;;;;;;34.04;35.06;100061.97;5357116;26;35515;-89
2021/07/09 04:35:53;;;;;;;;;;;;;;;33.56;37.49;100059.78;5336926;26;33909;-92
2021/07/09 04:38:20;;;;;;;;;;;;;;;33.20;37.90;100054.31;5333726;26;33722;-90
2021/07/09 04:40:48;;;;;;;;;;;;;;;32.93;37.92;100054.81;5332296;26;35760;-90
2021/07/09 04:43:15;;;;;;;;;;;;;;;33.10;37.41;100060.03;5329386;26;34392;-89
2021/07/09 04:45:42;;;;;;;;;;;;;;;33.33;36.57;100069.91;5350503;26;33611;-90
2021/07/09 04:48:10;;;;;;;;;;;;;;;33.52;36.04;100068.44;5330024;26;34773;-90
2021/07/09 04:50:37;;;;;;;;;;;;;;;33.67;35.67;100066.56;5367562;26;34458;-89
2021/07/09 04:53:05;;;;;;;;;;;;;;;34.03;35.26;100059.47;5349160;26;35306;-91
2021/07/09 04:55:32;;;;;;;;;;;;;;;33.84;35.60;100069.91;5367815;26;33622;-90
2021/07/09 04:58:00;;;;;;;;;;;;;;;33.86;35.46;100075.09;5367339;26;34278;-92
2021/07/09 05:00:27;;;;;;;;;;;;;;;33.88;35.29;100075.72;5348094;26;35126;-89
2021/07/09 05:02:58;;;;;;;;;;;;;;;33.35;36.33;100075.97;5330286;26;34633;-88
2021/07/09 05:05:25;;;;;;;;;;;;;;;32.99;37.31;100084.75;5329546;26;34177;-88
2021/07/09 05:07:53;;;;;;;;;;;;;;;33.09;36.97;100090.72;5348676;26;34629;-89
2021/07/09 05:10:21;;;;;;;;;;;;;;;33.05;37.12;100092.13;5348938;26;33962;-90
2021/07/09 05:12:48;;;;;;;;;;;;;;;32.93;37.34;100089.88;5348313;26;35125;-88
2021/07/09 05:15:15;;;;;;;;;;;;;;;32.71;37.80;100101.53;5348725;26;33231;-91
2021/07/09 05:17:43;;;;;;;;;;;;;;;33.10;36.99;100100.50;5348856;26;35069;-90
2021/07/09 05:20:12;;;;;;;;;;;;;;;33.09;36.93;100098.81;5330744;26;34640;-92
2021/07/09 05:22:39;;;;;;;;;;;;;;;32.87;37.31;100087.94;5329638;26;34585;-90
2021/07/09 05:25:07;;;;;;;;;;;;;;;33.60;35.88;100082.69;5348875;26;34201;-89
2021/07/09 05:27:35;;;;;;;;;;;;;;;33.92;35.28;100077.03;5348672;26;33944;-88
2021/07/09 05:30:03;;;;;;;;;;;;;;;33.92;35.32;100077.87;5329009;26;35909;-89
2021/07/09 05:32:31;;;;;;;;;;;;;;;33.63;36.08;100082.31;5348045;26;35755;-90
2021/07/09 05:35:05;;;;;;;;;;;;;;;33.85;35.81;100076.94;5330743;26;35335;-89
2021/07/09 05:37:33;;;;;;;;;;;;;;;34.37;34.64;100072.28;5349055;26;34204;-89
2021/07/09 05:40:01;;;;;;;;;;;;;;;34.09;35.08;100077.59;5348588;26;34726;-90
2021/07/09 05:42:28;;;;;;;;;;;;;;;33.81;36.00;100085.63;5329012;26;34998;-90
2021/07/09 05:44:56;;;;;;;;;;;;;;;33.91;35.43;100094.28;5331960;26;907081;-87
2021/07/09 05:47:24;;;;;;;;;;;;;;;33.66;35.86;100104.56;5329804;26;34976;-87
2021/07/09 05:49:53;;;;;;;;;;;;;;;33.77;35.64;100110.31;5329011;26;35636;-87
2021/07/09 05:52:21;;;;;;;;;;;;;;;33.54;36.07;100101.53;5329062;26;35073;-87
2021/07/09 05:54:48;;;;;;;;;;;;;;;33.68;35.79;100099.78;5366339;26;33498;-88
2021/07/09 05:57:15;;;;;;;;;;;;;;;34.04;35.09;100099.81;5311553;26;35337;-91
2021/07/09 05:59:43;;;;;;;;;;;;;;;33.51;36.35;100100.03;5328465;26;34819;-88
2021/07/09 06:02:11;;;;;;;;;;;;;;;32.64;37.46;100096.91;5347364;26;35188;-91
2021/07/09 06:04:39;;;;;;;;;;;;;;;33.52;36.11;100098.16;5347462;26;33971;-91
2021/07/09 06:07:07;;;;;;;;;;;;;;;32.84;37.33;100106.34;5329314;26;34161;-89
2021/07/09 06:09:34;;;;;;;;;;;;;;;32.90;37.42;100106.44;5329868;26;33338;-89
2021/07/09 06:12:02;;;;;;;;;;;;;;;32.64;37.46;100110.38;5330483;26;35222;-90
2021/07/09 06:14:31;;;;;;;;;;;;;;;33.09;36.85;100113.19;5355472;26;33834;-90
2021/07/09 06:16:59;;;;;;;;;;;;;;;32.49;37.66;100119.47;5362515;26;33959;-91
2021/07/09 06:19:27;;;;;;;;;;;;;;;32.03;38.72;100113.03;5367677;26;34494;-90
2021/07/09 06:21:58;;;;;;;;;;;;;;;32.76;37.35;100110.81;5342701;26;35829;-90
2021/07/09 06:24:25;;;;;;;;;;;;;;;32.52;38.18;100117.22;5356983;26;33914;-89
2021/07/09 06:26:55;;;;;;;;;;;;;;;32.04;38.91;100111.19;5354666;26;32701;-89
2021/07/09 06:29:22;;;;;;;;;;;;;;;33.14;36.84;100107.19;5335808;26;34541;-90
2021/07/09 06:31:51;;;;;;;;;;;;;;;33.42;36.28;100093.06;5350013;26;33901;-90
2021/07/09 06:34:20;;;;;;;;;;;;;;;33.55;35.82;100095.94;5329531;26;34161;-93
2021/07/09 06:36:47;;;;;;;;;;;;;;;33.33;35.99;100081.50;5329997;26;33442;-89
2021/07/09 06:39:14;;;;;;;;;;;;;;;33.36;36.12;100074.91;5348374;26;35148;-89
2021/07/09 06:41:42;;;;;;;;;;;;;;;33.83;35.08;100086.31;5346908;26;34500;-89
2021/07/09 06:44:13;;;;;;;;;;;;;;;32.75;37.28;100079.47;5366808;26;33537;-88
2021/07/09 06:46:43;;;;;;;;;;;;;;;33.48;35.79;100081.50;5329085;26;34644;-87
2021/07/09 06:49:12;;;;;;;;;;;;;;;33.00;36.39;100072.94;5329236;26;34999;-89
2021/07/09 06:51:39;;;;;;;;;;;;;;;33.35;35.78;100074.09;5328607;26;35329;-89
2021/07/09 06:54:06;;;;;;;;;;;;;;;33.76;34.78;100080.78;5347230;26;35386;-89
2021/07/09 06:56:34;;;;;;;;;;;;;;;33.82;34.63;100063.00;5329026;26;35745;-89
2021/07/09 06:59:01;;;;;;;;;;;;;;;33.58;34.86;100073.94;5348033;26;35154;-89
2021/07/09 07:01:29;;;;;;;;;;;;;;;32.56;37.07;100097.00;5347227;26;35527;-89
2021/07/09 07:03:57;;;;;;;;;;;;;;;32.48;37.36;100083.56;5311081;26;32423;-90
2021/07/09 07:06:25;;;;;;;;;;;;;;;33.12;36.01;100087.66;5347342;26;33062;-88
2021/07/09 07:08:52;;;;;;;;;;;;;;;33.18;37.39;100084.22;5347915;26;35839;-89
2021/07/09 07:11:30;;;;;;;;;;;;;;;33.21;38.46;100085.69;5367877;26;34499;-89
2021/07/09 07:13:57;;;;;;;;;;;;;;;33.68;37.97;100062.84;5347408;26;33810;-90
2021/07/09 07:16:25;;;;;;;;;;;;;;;33.81;38.32;100072.97;5328282;26;34428;-88
2021/07/09 07:18:52;;;;;;;;;;;;;;;33.75;38.22;100101.56;5347745;26;35280;-90
2021/07/09 07:21:21;;;;;;;;;;;;;;;33.28;39.93;100106.41;5366853;26;34348;-89
2021/07/09 07:23:49;;;;;;;;;;;;;;;32.70;40.96;100107.97;5329775;26;34571;-90
2021/07/09 07:26:20;;;;;;;;;;;;;;;32.19;41.35;100122.91;5348127;26;36267;-89
2021/07/09 07:28:49;;;;;;;;;;;;;;;31.84;42.52;100152.03;5368487;26;34145;-89
2021/07/09 07:31:17;;;;;;;;;;;;;;;32.13;41.71;100140.56;5329598;26;34481;-89
2021/07/09 07:33:44;;;;;;;;;;;;;;;30.93;44.98;100133.44;5367420;26;34220;-89
2021/07/09 07:36:15;;;;;;;;;;;;;;;31.47;44.26;100145.44;5330252;26;34709;-88
2021/07/09 07:38:46;;;;;;;;;;;;;;;31.03;45.07;100151.25;5329928;26;36124;-88
2021/07/09 07:41:14;;;;;;;;;;;;;;;31.52;44.79;100128.78;5329642;26;35301;-89
2021/07/09 07:43:45;;;;;;;;;;;;;;;31.23;45.17;100124.84;5329665;26;33642;-89
2021/07/09 07:46:13;;;;;;;;;;;;;;;30.72;46.79;100135.84;5330786;26;35704;-90
2021/07/09 07:48:43;;;;;;;;;;;;;;;31.20;46.30;100117.94;5329952;26;35179;-90
2021/07/09 07:51:35;;;;;;;;;;;;;;;31.57;45.55;100103.00;5337852;26;35708;-89
2021/07/09 07:54:03;;;;;;;;;;;;;;;31.88;45.18;100137.19;5348723;26;34094;-89
2021/07/09 07:56:30;;;;;;;;;;;;;;;32.03;44.27;100139.13;5329682;26;35912;-92
2021/07/09 07:58:58;;;;;;;;;;;;;;;31.98;45.20;100121.66;5358083;26;34571;-89
2021/07/09 08:01:29;;;;;;;;;;;;;;;32.13;45.05;100119.00;5361373;26;34407;-90
2021/07/09 08:03:57;;;;;;;;;;;;;;;32.17;45.17;100106.06;5344528;26;36603;-90
2021/07/09 08:06:25;;;;;;;;;;;;;;;32.39;45.59;100103.53;5340325;26;37033;-91
2021/07/09 08:08:52;;;;;;;;;;;;;;;32.69;45.19;100095.50;5348593;26;34683;-89
2021/07/09 08:11:19;;;;;;;;;;;;;;;32.90;44.99;100105.63;5349131;26;34407;-89
2021/07/09 08:13:47;;;;;;;;;;;;;;;32.96;45.04;100116.50;5349159;26;33339;-91
2021/07/09 08:16:14;;;;;;;;;;;;;;;32.96;45.06;100108.41;5329739;26;34570;-90
2021/07/09 08:18:42;;;;;;;;;;;;;;;32.71;45.56;100120.44;5347900;26;34963;-89
2021/07/09 08:21:10;;;;;;;;;;;;;;;32.98;43.20;100129.81;5347395;26;34986;-90
2021/07/09 08:23:39;;;;;;;;;;;;;;;33.07;43.16;100130.56;5330211;26;34895;-89
2021/07/09 08:26:07;;;;;;;;;;;;;;;33.38;42.39;100149.31;5330095;26;34551;-89
2021/07/09 08:28:34;;;;;;;;;;;;;;;33.82;41.56;100147.59;5349283;26;35227;-90
2021/07/09 08:31:01;;;;;;;;;;;;;;;33.58;41.68;100156.84;5348892;26;34306;-90
2021/07/09 08:33:32;;;;;;;;;;;;;;;33.29;42.53;100147.72;5367916;26;33521;-91
2021/07/09 08:36:01;;;;;;;;;;;;;;;33.60;42.87;100161.03;5367329;26;35127;-90
2021/07/09 08:38:28;;;;;;;;;;;;;;;33.49;43.63;100166.06;5330064;26;34773;-89
2021/07/09 08:40:56;;;;;;;;;;;;;;;33.94;42.04;100167.69;5329417;26;35639;-90
2021/07/09 08:43:31;;;;;;;;;;;;;;;34.22;40.65;100168.81;5350858;26;34129;-90
2021/07/09 08:46:00;;;;;;;;;;;;;;;34.38;39.87;100178.56;5332034;26;33149;-92
2021/07/09 08:48:27;;;;;;;;;;;;;;;34.33;39.79;100179.16;5332184;26;34896;-91
2021/07/09 08:50:56;;;;;;;;;;;;;;;34.01;40.26;100175.03;5331176;26;35996;-92
2021/07/09 08:53:24;;;;;;;;;;;;;;;34.36;40.18;100184.19;5331005;26;32431;-92
2021/07/09 08:55:51;;;;;;;;;;;;;;;34.06;41.17;100181.53;5331357;26;35959;-91
2021/07/09 08:58:19;;;;;;;;;;;;;;;34.50;39.27;100174.31;5350363;26;34030;-91
2021/07/09 09:00:46;;;;;;;;;;;;;;;34.47;39.95;100179.28;5369084;26;34992;-90
2021/07/09 09:03:15;;;;;;;;;;;;;;;34.84;37.45;100180.06;5331173;26;32909;-91
2021/07/09 09:05:43;;;;;;;;;;;;;;;34.20;38.25;100174.41;5350058;26;33014;-91
2021/07/09 09:08:11;;;;;;;;;;;;;;;33.54;40.05;100160.94;5330945;26;34254;-90
2021/07/09 09:10:40;;;;;;;;;;;;;;;34.16;39.18;100156.91;5347449;26;33114;-93
2021/07/09 09:13:08;;;;;;;;;;;;;;;34.36;38.18;100159.00;5331552;26;32159;-92
2021/07/09 09:15:37;;;;;;;;;;;;;;;34.83;36.84;100154.03;5348554;26;34208;-90
2021/07/09 09:18:25;;;;;;;;;;;;;;;33.28;40.16;100167.62;5332436;26;33156;-89
2021/07/09 09:20:57;;;;;;;;;;;;;;;34.23;38.87;100167.78;5330367;26;33880;-89
2021/07/09 09:23:25;;;;;;;;;;;;;;;33.46;41.23;100156.47;5329600;26;32645;-90
2021/07/09 09:25:53;;;;;;;;;;;;;;;33.10;41.85;100149.09;5330278;26;33503;-90
2021/07/09 09:28:20;;;;;;;;;;;;;;;32.79;42.09;100134.72;5331134;26;33236;-89
2021/07/09 09:30:52;;;;;;;;;;;;;;;33.19;41.47;100136.31;5349198;26;34991;-89
2021/07/09 09:33:20;;;;;;;;;;;;;;;33.21;41.30;100137.00;5330641;26;33245;-90
2021/07/09 09:35:55;;;;;;;;;;;;;;;32.65;44.64;100127.41;5348531;26;33351;-89
2021/07/09 09:38:24;;;;;;;;;;;;;;;32.59;45.27;100107.41;5331089;26;33509;-89
2021/07/09 09:40:51;;;;;;;;;;;;;;;32.84;45.19;100134.19;5335933;26;33291;-90
2021/07/09 09:43:21;;;;;;;;;;;;;;;32.32;45.16;100146.53;5336546;26;32665;-90
2021/07/09 09:45:56;;;;;;;;;;;;;;;32.21;45.40;100130.81;5374490;26;34389;-90
2021/07/09 09:48:24;;;;;;;;;;;;;;;31.88;46.19;100110.25;5333257;26;34144;-91
2021/07/09 09:50:51;;;;;;;;;;;;;;;31.92;46.34;100095.41;5331649;26;33104;-90
2021/07/09 09:53:30;;;;;;;;;;;;;;;32.21;46.41;100080.41;5332073;26;32351;-89
2021/07/09 09:56:07;;;;;;;;;;;;;;;32.45;46.03;100076.66;5348669;26;33888;-90
2021/07/09 09:58:39;;;;;;;;;;;;;;;32.78;45.09;100059.38;5350316;26;34553;-90
2021/07/09 10:01:07;;;;;;;;;;;;;;;33.59;42.92;100056.69;5348517;26;33206;-90
2021/07/09 10:03:35;;;;;;;;;;;;;;;34.06;41.92;100054.50;5349146;26;32805;-90
2021/07/09 10:06:02;;;;;;;;;;;;;;;34.37;41.26;100084.94;5330308;26;33077;-90
2021/07/09 10:08:29;;;;;;;;;;;;;;;34.39;41.23;100099.94;5347953;26;34753;-92
2021/07/09 10:10:58;;;;;;;;;;;;;;;34.13;42.06;100092.41;5330138;26;34271;-89
2021/07/09 10:13:28;;;;;;;;;;;;;;;34.33;41.50;100103.44;5329814;26;34021;-90
2021/07/09 10:15:55;;;;;;;;;;;;;;;34.73;40.89;100108.31;5348464;26;35063;-90
2021/07/09 10:18:23;;;;;;;;;;;;;;;34.60;40.74;100109.06;5329751;26;35046;-89
2021/07/09 10:20:51;;;;;;;;;;;;;;;34.78;40.18;100101.31;5330258;26;34422;-90
2021/07/09 10:23:19;;;;;;;;;;;;;;;34.02;41.26;100096.47;5348251;26;32344;-89
2021/07/09 10:25:48;;;;;;;;;;;;;;;34.15;41.06;100093.06;5329322;26;34560;-90
2021/07/09 10:28:17;;;;;;;;;;;;;;;34.55;39.99;100101.53;5331935;26;34997;-89
2021/07/09 10:30:44;;;;;;;;;;;;;;;34.94;39.02;100093.91;5366894;26;35190;-90
2021/07/09 10:33:25;;;;;;;;;;;;;;;35.11;38.26;100086.31;5348577;26;33439;-91
2021/07/09 10:35:52;;;;;;;;;;;;;;;34.25;40.10;100096.28;5366712;26;35044;-90
2021/07/09 10:38:22;;;;;;;;;;;;;;;34.80;38.31;100090.28;5347279;26;34926;-89
2021/07/09 10:40:50;;;;;;;;;;;;;;;35.17;37.30;100085.53;5367009;26;33823;-90
2021/07/09 10:43:18;;;;;;;;;;;;;;;35.08;36.89;100092.97;5328842;26;32399;-89
2021/07/09 10:45:47;;;;;;;;;;;;;;;34.94;36.59;100099.34;5348316;26;34756;-88
2021/07/09 10:48:17;;;;;;;;;;;;;;;34.08;38.21;100111.09;5347884;26;33283;-88
2021/07/09 10:50:48;;;;;;;;;;;;;;;34.21;38.33;100104.94;5328931;26;34970;-90
2021/07/09 10:53:18;;;;;;;;;;;;;;;35.19;36.27;100106.97;5347167;26;34484;-89
2021/07/09 10:55:59;;;;;;;;;;;;;;;34.61;37.27;100108.03;5365736;26;34405;-89
2021/07/09 10:58:40;;;;;;;;;;;;;;;35.11;36.41;100105.25;5348088;26;36072;-88
2021/07/09 11:01:07;;;;;;;;;;;;;;;33.77;38.72;100134.63;5367490;26;34419;-89
2021/07/09 11:03:53;;;;;;;;;;;;;;;33.28;39.25;100121.72;5366711;26;33918;-89
2021/07/09 11:06:33;;;;;;;;;;;;;;;33.87;38.53;100130.81;5347934;26;34562;-89
2021/07/09 11:09:03;;;;;;;;;;;;;;;32.78;41.22;100127.63;5348081;26;33627;-88
2021/07/09 11:11:42;;;;;;;;;;;;;;;33.69;39.06;100128.50;5349489;26;33490;-89
2021/07/09 11:14:11;;;;;;;;;;;;;;;33.36;40.00;100123.50;5370688;26;33639;-89
2021/07/09 11:16:47;;;;;;;;;;;;;;;33.14;40.66;100120.69;5353758;26;34098;-89
2021/07/09 11:19:18;;;;;;;;;;;;;;;33.39;40.05;100104.25;5331372;26;34480;-89
2021/07/09 11:21:53;;;;;;;;;;;;;;;33.54;39.67;100096.94;5359460;26;34792;-90
2021/07/09 11:24:22;;;;;;;;;;;;;;;33.83;38.09;100094.41;5350214;26;33865;-89
2021/07/09 11:26:50;;;;;;;;;;;;;;;34.68;36.58;100073.75;5331194;26;34491;-89
2021/07/09 11:29:33;;;;;;;;;;;;;;;35.06;36.89;100078.81;5371856;26;34104;-89
2021/07/09 11:32:11;;;;;;;;;;;;;;;35.38;37.25;100073.78;5388547;26;34417;-89
2021/07/09 11:34:43;;;;;;;;;;;;;;;35.27;37.08;100075.13;5367507;26;33240;-90
2021/07/09 11:37:16;;;;;;;;;;;;;;;35.65;35.98;100068.44;5347865;26;34964;-89
2021/07/09 11:43:42;;;;;;;;;;;;;;;36.00;35.26;100076.44;5272880;27;34069;-89
2021/07/09 11:46:09;;;;;;;;;;;;;;;35.68;35.75;100080.75;5237996;27;33585;-90
2021/07/09 11:48:37;;;;;;;;;;;;;;;36.60;34.50;100092.78;5237523;27;35643;-89
2021/07/09 11:51:05;;;;;;;;;;;;;;;36.98;33.58;100074.13;5237160;27;33584;-89
2021/07/09 11:53:32;;;;;;;;;;;;;;;37.26;32.91;100068.41;5254655;27;35967;-89
2021/07/09 11:56:14;;;;;;;;;;;;;;;37.47;32.72;100067.31;5255309;27;33556;-90
2021/07/09 11:58:41;;;;;;;;;;;;;;;37.10;33.65;100075.16;5255482;27;34954;-89
2021/07/09 12:01:17;;;;;;;;;;;;;;;36.85;33.76;100078.56;5220069;27;34699;-90
2021/07/09 12:03:48;;;;;;;;;;;;;;;37.02;33.37;100080.81;5238494;27;33851;-90
2021/07/09 12:06:21;;;;;;;;;;;;;;;37.17;33.02;100080.56;5255428;27;32344;-89
2021/07/09 12:08:57;;;;;;;;;;;;;;;36.99;33.34;100073.94;5237033;27;34657;-88
2021/07/09 12:11:25;;;;;;;;;;;;;;;37.52;32.53;100070.19;5255570;27;35930;-88
2021/07/09 12:14:05;;;;;;;;;;;;;;;37.05;33.54;100075.78;5256237;27;34198;-88
2021/07/09 12:16:33;;;;;;;;;;;;;;;36.64;33.85;100076.06;5238234;27;33630;-89
2021/07/09 12:19:01;;;;;;;;;;;;;;;36.24;34.57;100061.44;5347039;26;35022;-89
2021/07/09 12:21:29;;;;;;;;;;;;;;;36.26;34.47;100066.69;5349263;26;34306;-89
2021/07/09 12:24:00;;;;;;;;;;;;;;;37.36;32.61;100052.53;5330364;26;34316;-89
2021/07/09 12:26:28;;;;;;;;;;;;;;;37.50;32.41;100053.28;5348584;26;33699;-89
2021/07/09 12:28:56;;;;;;;;;;;;;;;37.30;32.73;100047.06;5329769;26;34901;-89
2021/07/09 12:31:23;;;;;;;;;;;;;;;37.32;32.74;100040.41;5329401;26;35475;-88
2021/07/09 12:33:53;;;;;;;;;;;;;;;37.38;32.86;100031.38;5330021;26;34782;-88
2021/07/09 12:36:25;;;;;;;;;;;;;;;37.13;33.30;100038.59;5348860;26;33564;-90
2021/07/09 12:38:57;;;;;;;;;;;;;;;37.41;32.23;100024.69;5348337;26;34519;-90
2021/07/09 12:41:31;;;;;;;;;;;;;;;36.77;32.82;100025.28;5329178;26;35131;-90
2021/07/09 12:44:07;;;;;;;;;;;;;;;37.37;31.87;100027.00;5348836;26;34349;-90
2021/07/09 12:46:34;;;;;;;;;;;;;;;37.39;31.10;100029.50;5328017;26;33233;-90
2021/07/09 12:49:03;;;;;;;;;;;;;;;37.22;31.26;100027.25;5367923;26;34021;-90